PWSweather.com
Personal Weather Stations
Station Observations
KKYBOWLI8
Greystone Ii, Bowling Green, KY 42101

Greystone IiBowling Green, KY 42101

Lat: 36.9238, Lon: -86.5206

Elevation: 600

Station Type: Davis Vantage Pro2

www.sokyweather.com

High Low Average
Temperature 72.8°F22.7°C 64.5°F18.1°C 68.2°F20.1°C
Dew Point 72.8°F22.7°C 64.5°F18.1°C 68.2°F20.1°C
Winds 0.4 mph 0.6 kmh Calm Calm Calm NNECalm NNE
Wind Gusts 5.0 mph8.0 kmh -- 1.0 mph1.6 kmh
Humidity 100% 100% 100%
Pressure 30.06 in1017.9 mb 29.99 in1015.6 mb -
Precipitation 0.26 in6.6 mm - -
Hour Temp Dew Point Humidity Winds Wind Gusts Pressure Precip Precip Rate Daily Precip Total
12:00 AM 64.2°F17.9°C 64.2°F17.9°C 100% Calm Calm 1.0 mph1.6 kmh 30.04 in1017.3 mb 0.04 in1.0 mm 0.00 in0.0 mm 0.04 in1.0 mm
12:10 AM 64.2°F17.9°C 64.2°F17.9°C 100% Calm Calm 1.0 mph1.6 kmh 30.04 in1017.3 mb 0.02 in0.5 mm 0.00 in0.0 mm 0.04 in1.0 mm
12:20 AM 64.2°F17.9°C 64.2°F17.9°C 100% Calm Calm 2.0 mph3.2 kmh 30.03 in1016.9 mb 0.02 in0.5 mm 0.00 in0.0 mm 0.01 in0.3 mm
12:30 AM 64.3°F17.9°C 64.3°F17.9°C 100% Calm Calm 2.0 mph3.2 kmh 30.02 in1016.6 mb 0.01 in0.3 mm 0.00 in0.0 mm 0.01 in0.3 mm
12:40 AM 64.3°F17.9°C 64.3°F17.9°C 100% Calm Calm 5.0 mph8.0 kmh 30.03 in1016.9 mb 0.01 in0.3 mm 0.00 in0.0 mm 0.01 in0.3 mm
12:50 AM 64.5°F18.1°C 64.5°F18.1°C 100% Calm Calm 1.0 mph1.6 kmh 30.03 in1016.9 mb 0.01 in0.3 mm 0.00 in0.0 mm 0.01 in0.3 mm
01:00 AM 64.5°F18.1°C 64.5°F18.1°C 100% Calm Calm 1.0 mph1.6 kmh 30.02 in1016.6 mb 0.02 in0.5 mm 0.01 in0.3 mm 0.02 in0.5 mm
01:10 AM 64.5°F18.1°C 64.5°F18.1°C 100% Calm Calm -- 30.02 in1016.6 mb 0.02 in0.5 mm 0.00 in0.0 mm 0.02 in0.5 mm
01:20 AM 64.6°F18.1°C 64.6°F18.1°C 100% Calm Calm 1.0 mph1.6 kmh 30.01 in1016.3 mb 0.02 in0.5 mm 0.00 in0.0 mm 0.03 in0.8 mm
01:30 AM 64.6°F18.1°C 64.6°F18.1°C 100% Calm Calm -- 30.00 in1015.9 mb 0.03 in0.8 mm 0.06 in1.5 mm 0.04 in1.0 mm
01:40 AM 64.6°F18.1°C 64.6°F18.1°C 100% Calm Calm -- 30.00 in1015.9 mb 0.03 in0.8 mm 0.00 in0.0 mm 0.04 in1.0 mm
01:50 AM 64.6°F18.1°C 64.6°F18.1°C 100% Calm Calm 1.0 mph1.6 kmh 30.00 in1015.9 mb 0.04 in1.0 mm 0.06 in1.5 mm 0.05 in1.3 mm
02:00 AM 64.6°F18.1°C 64.6°F18.1°C 100% Calm Calm -- 30.00 in1015.9 mb 0.03 in0.8 mm 0.00 in0.0 mm 0.05 in1.3 mm
02:10 AM 64.8°F18.2°C 64.8°F18.2°C 100% Calm Calm -- 30.00 in1015.9 mb 0.03 in0.8 mm 0.00 in0.0 mm 0.05 in1.3 mm
02:20 AM 64.8°F18.2°C 64.8°F18.2°C 100% Calm Calm -- 30.00 in1015.9 mb 0.02 in0.5 mm 0.00 in0.0 mm 0.05 in1.3 mm
02:30 AM 64.8°F18.2°C 64.8°F18.2°C 100% Calm Calm -- 30.01 in1016.3 mb 0.01 in0.3 mm 0.00 in0.0 mm 0.05 in1.3 mm
02:40 AM 64.8°F18.2°C 64.8°F18.2°C 100% Calm Calm -- 30.00 in1015.9 mb 0.01 in0.3 mm 0.00 in0.0 mm 0.05 in1.3 mm
02:50 AM 64.8°F18.2°C 64.8°F18.2°C 100% Calm Calm -- 30.00 in1015.9 mb 0.00 in0.0 mm 0.00 in0.0 mm 0.05 in1.3 mm
03:00 AM 64.8°F18.2°C 64.8°F18.2°C 100% Calm Calm -- 30.00 in1015.9 mb 0.00 in0.0 mm 0.00 in0.0 mm 0.05 in1.3 mm
03:10 AM 64.8°F18.2°C 64.8°F18.2°C 100% Calm Calm -- 30.00 in1015.9 mb 0.00 in0.0 mm 0.00 in0.0 mm 0.05 in1.3 mm
03:20 AM 64.8°F18.2°C 64.8°F18.2°C 100% Calm Calm -- 30.01 in1016.3 mb 0.00 in0.0 mm 0.00 in0.0 mm 0.05 in1.3 mm
03:30 AM 64.8°F18.2°C 64.8°F18.2°C 100% Calm Calm -- 30.01 in1016.3 mb 0.00 in0.0 mm 0.00 in0.0 mm 0.05 in1.3 mm
03:40 AM 64.6°F18.1°C 64.6°F18.1°C 100% Calm Calm -- 30.00 in1015.9 mb 0.00 in0.0 mm 0.00 in0.0 mm 0.05 in1.3 mm
03:50 AM 64.6°F18.1°C 64.6°F18.1°C 100% Calm Calm 1.0 mph1.6 kmh 30.00 in1015.9 mb 0.00 in0.0 mm 0.00 in0.0 mm 0.05 in1.3 mm
04:00 AM 64.6°F18.1°C 64.6°F18.1°C 100% Calm Calm -- 30.00 in1015.9 mb 0.00 in0.0 mm 0.00 in0.0 mm 0.05 in1.3 mm
04:10 AM 64.6°F18.1°C 64.6°F18.1°C 100% Calm Calm -- 30.00 in1015.9 mb 0.00 in0.0 mm 0.00 in0.0 mm 0.05 in1.3 mm
04:20 AM 64.8°F18.2°C 64.8°F18.2°C 100% Calm Calm -- 30.00 in1015.9 mb 0.00 in0.0 mm 0.00 in0.0 mm 0.05 in1.3 mm
04:30 AM 64.8°F18.2°C 64.8°F18.2°C 100% Calm Calm 1.0 mph1.6 kmh 30.00 in1015.9 mb 0.00 in0.0 mm 0.00 in0.0 mm 0.05 in1.3 mm
04:40 AM 64.8°F18.2°C 64.8°F18.2°C 100% Calm Calm -- 30.00 in1015.9 mb 0.00 in0.0 mm 0.00 in0.0 mm 0.05 in1.3 mm
04:50 AM 64.8°F18.2°C 64.8°F18.2°C 100% Calm Calm -- 30.00 in1015.9 mb 0.00 in0.0 mm 0.00 in0.0 mm 0.05 in1.3 mm
05:00 AM 64.8°F18.2°C 64.8°F18.2°C 100% Calm Calm -- 30.00 in1015.9 mb 0.01 in0.3 mm 0.01 in0.3 mm 0.06 in1.5 mm
05:10 AM 64.8°F18.2°C 64.8°F18.2°C 100% Calm Calm 3.0 mph4.8 kmh 30.00 in1015.9 mb 0.01 in0.3 mm 0.00 in0.0 mm 0.06 in1.5 mm
05:20 AM 64.8°F18.2°C 64.8°F18.2°C 100% Calm Calm -- 30.00 in1015.9 mb 0.01 in0.3 mm 0.00 in0.0 mm 0.06 in1.5 mm
05:30 AM 64.8°F18.2°C 64.8°F18.2°C 100% Calm Calm -- 30.00 in1015.9 mb 0.01 in0.3 mm 0.00 in0.0 mm 0.06 in1.5 mm
05:40 AM 65.0°F18.3°C 65.0°F18.3°C 100% Calm Calm -- 30.00 in1015.9 mb 0.01 in0.3 mm 0.00 in0.0 mm 0.06 in1.5 mm
05:50 AM 65.0°F18.3°C 65.0°F18.3°C 100% Calm Calm -- 30.00 in1015.9 mb 0.02 in0.5 mm 0.06 in1.5 mm 0.07 in1.8 mm
06:00 AM 65.0°F18.3°C 65.0°F18.3°C 100% Calm Calm -- 30.00 in1015.9 mb 0.01 in0.3 mm 0.00 in0.0 mm 0.07 in1.8 mm
06:10 AM 65.0°F18.3°C 65.0°F18.3°C 100% Calm Calm -- 30.00 in1015.9 mb 0.01 in0.3 mm 0.00 in0.0 mm 0.07 in1.8 mm
06:20 AM 65.0°F18.3°C 65.0°F18.3°C 100% Calm Calm -- 30.01 in1016.3 mb 0.01 in0.3 mm 0.00 in0.0 mm 0.07 in1.8 mm
06:30 AM 65.0°F18.3°C 65.0°F18.3°C 100% Calm Calm -- 30.01 in1016.3 mb 0.02 in0.5 mm 0.06 in1.5 mm 0.08 in2.0 mm
06:40 AM 65.0°F18.3°C 65.0°F18.3°C 100% Calm Calm -- 30.01 in1016.3 mb 0.02 in0.5 mm 0.00 in0.0 mm 0.08 in2.0 mm
06:50 AM 65.1°F18.4°C 65.1°F18.4°C 100% Calm Calm -- 30.02 in1016.6 mb 0.02 in0.5 mm 0.00 in0.0 mm 0.09 in2.3 mm
07:00 AM 65.1°F18.4°C 65.1°F18.4°C 100% Calm Calm -- 30.02 in1016.6 mb 0.02 in0.5 mm 0.00 in0.0 mm 0.09 in2.3 mm
07:10 AM 65.0°F18.3°C 65.0°F18.3°C 100% Calm Calm 3.0 mph4.8 kmh 30.02 in1016.6 mb 0.03 in0.8 mm 0.06 in1.5 mm 0.10 in2.5 mm
07:20 AM 64.8°F18.2°C 64.8°F18.2°C 100% Calm Calm 1.0 mph1.6 kmh 30.02 in1016.6 mb 0.02 in0.5 mm 0.00 in0.0 mm 0.10 in2.5 mm
07:30 AM 64.6°F18.1°C 64.6°F18.1°C 100% Calm Calm 5.0 mph8.0 kmh 30.03 in1016.9 mb 0.02 in0.5 mm 0.00 in0.0 mm 0.10 in2.5 mm
07:40 AM 64.5°F18.1°C 64.5°F18.1°C 100% 0.4 mph NNE0.6 kmh NNE 5.0 mph8.0 kmh 30.03 in1016.9 mb 0.02 in0.5 mm 0.00 in0.0 mm 0.11 in2.8 mm
07:50 AM 64.6°F18.1°C 64.6°F18.1°C 100% 0.3 mph NNE0.5 kmh NNE 3.0 mph4.8 kmh 30.03 in1016.9 mb 0.02 in0.5 mm 0.00 in0.0 mm 0.11 in2.8 mm
08:00 AM 64.6°F18.1°C 64.6°F18.1°C 100% Calm Calm 2.0 mph3.2 kmh 30.03 in1016.9 mb 0.02 in0.5 mm 0.00 in0.0 mm 0.11 in2.8 mm
08:10 AM 64.6°F18.1°C 64.6°F18.1°C 100% Calm Calm 1.0 mph1.6 kmh 30.04 in1017.3 mb 0.01 in0.3 mm 0.00 in0.0 mm 0.11 in2.8 mm
08:20 AM 64.6°F18.1°C 64.6°F18.1°C 100% Calm Calm 3.0 mph4.8 kmh 30.04 in1017.3 mb 0.02 in0.5 mm 0.06 in1.5 mm 0.12 in3.0 mm
08:30 AM 64.8°F18.2°C 64.8°F18.2°C 100% Calm Calm -- 30.04 in1017.3 mb 0.03 in0.8 mm 0.06 in1.5 mm 0.13 in3.3 mm
08:40 AM 65.1°F18.4°C 65.1°F18.4°C 100% Calm Calm 1.0 mph1.6 kmh 30.04 in1017.3 mb 0.03 in0.8 mm 0.00 in0.0 mm 0.14 in3.6 mm
08:50 AM 65.1°F18.4°C 65.1°F18.4°C 100% Calm Calm 1.0 mph1.6 kmh 30.04 in1017.3 mb 0.03 in0.8 mm 0.00 in0.0 mm 0.14 in3.6 mm
09:00 AM 65.3°F18.5°C 65.3°F18.5°C 100% Calm Calm -- 30.04 in1017.3 mb 0.03 in0.8 mm 0.00 in0.0 mm 0.14 in3.6 mm
09:10 AM 65.1°F18.4°C 65.1°F18.4°C 100% Calm Calm 3.0 mph4.8 kmh 30.05 in1017.6 mb 0.04 in1.0 mm 0.06 in1.5 mm 0.15 in3.8 mm
09:20 AM 65.3°F18.5°C 65.3°F18.5°C 100% Calm Calm -- 30.05 in1017.6 mb 0.04 in1.0 mm 0.00 in0.0 mm 0.16 in4.1 mm
09:30 AM 65.3°F18.5°C 65.3°F18.5°C 100% Calm Calm 1.0 mph1.6 kmh 30.04 in1017.3 mb 0.04 in1.0 mm 0.00 in0.0 mm 0.17 in4.3 mm
09:40 AM 65.6°F18.7°C 65.6°F18.7°C 100% Calm Calm 3.0 mph4.8 kmh 30.04 in1017.3 mb 0.04 in1.0 mm 0.00 in0.0 mm 0.18 in4.6 mm
09:50 AM 65.8°F18.8°C 65.8°F18.8°C 100% Calm Calm 3.0 mph4.8 kmh 30.05 in1017.6 mb 0.05 in1.3 mm 0.06 in1.5 mm 0.19 in4.8 mm
10:00 AM 66.1°F18.9°C 66.1°F18.9°C 100% Calm Calm 2.0 mph3.2 kmh 30.05 in1017.6 mb 0.05 in1.3 mm 0.00 in0.0 mm 0.19 in4.8 mm
10:10 AM 66.1°F18.9°C 66.1°F18.9°C 100% Calm Calm 2.0 mph3.2 kmh 30.06 in1017.9 mb 0.04 in1.0 mm 0.00 in0.0 mm 0.19 in4.8 mm
10:20 AM 66.1°F18.9°C 66.1°F18.9°C 100% Calm Calm -- 30.06 in1017.9 mb 0.03 in0.8 mm 0.00 in0.0 mm 0.19 in4.8 mm
10:30 AM 66.3°F19.1°C 66.3°F19.1°C 100% Calm Calm -- 30.06 in1017.9 mb 0.02 in0.5 mm 0.00 in0.0 mm 0.19 in4.8 mm
10:40 AM 66.6°F19.2°C 66.6°F19.2°C 100% Calm Calm -- 30.06 in1017.9 mb 0.01 in0.3 mm 0.00 in0.0 mm 0.19 in4.8 mm
10:50 AM 66.7°F19.3°C 66.7°F19.3°C 100% Calm Calm -- 30.06 in1017.9 mb 0.00 in0.0 mm 0.00 in0.0 mm 0.19 in4.8 mm
11:00 AM 66.9°F19.4°C 66.9°F19.4°C 100% Calm Calm -- 30.06 in1017.9 mb 0.00 in0.0 mm 0.00 in0.0 mm 0.19 in4.8 mm
11:10 AM 67.1°F19.5°C 67.1°F19.5°C 100% Calm Calm -- 30.06 in1017.9 mb 0.00 in0.0 mm 0.00 in0.0 mm 0.19 in4.8 mm
11:20 AM 67.4°F19.7°C 67.4°F19.7°C 100% Calm Calm -- 30.06 in1017.9 mb 0.00 in0.0 mm 0.00 in0.0 mm 0.19 in4.8 mm
11:30 AM 67.7°F19.8°C 67.7°F19.8°C 100% Calm Calm -- 30.06 in1017.9 mb 0.00 in0.0 mm 0.00 in0.0 mm 0.19 in4.8 mm
11:40 AM 68.1°F20.1°C 68.1°F20.1°C 100% Calm Calm 1.0 mph1.6 kmh 30.06 in1017.9 mb 0.00 in0.0 mm 0.00 in0.0 mm 0.19 in4.8 mm
11:50 AM 68.2°F20.1°C 68.2°F20.1°C 100% Calm Calm -- 30.06 in1017.9 mb 0.00 in0.0 mm 0.00 in0.0 mm 0.19 in4.8 mm
12:00 PM 68.6°F20.3°C 68.6°F20.3°C 100% Calm Calm -- 30.05 in1017.6 mb 0.00 in0.0 mm 0.00 in0.0 mm 0.19 in4.8 mm
12:10 PM 68.4°F20.2°C 68.4°F20.2°C 100% Calm Calm 2.0 mph3.2 kmh 30.05 in1017.6 mb 0.00 in0.0 mm 0.00 in0.0 mm 0.19 in4.8 mm
12:20 PM 68.7°F20.4°C 68.7°F20.4°C 100% Calm Calm 1.0 mph1.6 kmh 30.05 in1017.6 mb 0.00 in0.0 mm 0.00 in0.0 mm 0.19 in4.8 mm
12:30 PM 69.1°F20.6°C 69.1°F20.6°C 100% Calm Calm -- 30.05 in1017.6 mb 0.00 in0.0 mm 0.00 in0.0 mm 0.19 in4.8 mm
12:40 PM 69.4°F20.8°C 69.4°F20.8°C 100% Calm Calm -- 30.05 in1017.6 mb 0.00 in0.0 mm 0.00 in0.0 mm 0.19 in4.8 mm
12:50 PM 69.4°F20.8°C 69.4°F20.8°C 100% Calm Calm -- 30.05 in1017.6 mb 0.00 in0.0 mm 0.00 in0.0 mm 0.19 in4.8 mm
01:00 PM 69.6°F20.9°C 69.6°F20.9°C 100% Calm Calm -- 30.05 in1017.6 mb 0.00 in0.0 mm 0.00 in0.0 mm 0.19 in4.8 mm
01:10 PM 69.7°F20.9°C 69.7°F20.9°C 100% Calm Calm -- 30.05 in1017.6 mb 0.00 in0.0 mm 0.00 in0.0 mm 0.19 in4.8 mm
01:20 PM 69.9°F21.1°C 69.9°F21.1°C 100% Calm Calm 2.0 mph3.2 kmh 30.04 in1017.3 mb 0.00 in0.0 mm 0.00 in0.0 mm 0.19 in4.8 mm
01:30 PM 70.4°F21.3°C 70.4°F21.3°C 100% Calm Calm 1.0 mph1.6 kmh 30.04 in1017.3 mb 0.00 in0.0 mm 0.00 in0.0 mm 0.19 in4.8 mm
01:40 PM 70.7°F21.5°C 70.7°F21.5°C 100% Calm Calm 3.0 mph4.8 kmh 30.03 in1016.9 mb 0.00 in0.0 mm 0.00 in0.0 mm 0.19 in4.8 mm
01:50 PM 70.7°F21.5°C 70.7°F21.5°C 100% Calm Calm 1.0 mph1.6 kmh 30.03 in1016.9 mb 0.00 in0.0 mm 0.00 in0.0 mm 0.19 in4.8 mm
02:00 PM 70.7°F21.5°C 70.7°F21.5°C 100% Calm Calm 4.0 mph6.4 kmh 30.02 in1016.6 mb 0.00 in0.0 mm 0.00 in0.0 mm 0.19 in4.8 mm
02:10 PM 70.9°F21.6°C 70.9°F21.6°C 100% Calm Calm 4.0 mph6.4 kmh 30.02 in1016.6 mb 0.00 in0.0 mm 0.00 in0.0 mm 0.19 in4.8 mm
02:20 PM 70.9°F21.6°C 70.9°F21.6°C 100% 0.4 mph NE0.6 kmh NE 4.0 mph6.4 kmh 30.02 in1016.6 mb 0.00 in0.0 mm 0.00 in0.0 mm 0.19 in4.8 mm
02:30 PM 71.4°F21.9°C 71.4°F21.9°C 100% 0.4 mph NNE0.6 kmh NNE 3.0 mph4.8 kmh 30.01 in1016.3 mb 0.00 in0.0 mm 0.00 in0.0 mm 0.19 in4.8 mm
02:40 PM 71.9°F22.2°C 71.9°F22.2°C 100% Calm Calm -- 30.01 in1016.3 mb 0.00 in0.0 mm 0.00 in0.0 mm 0.19 in4.8 mm
02:50 PM 72.4°F22.4°C 72.4°F22.4°C 100% Calm Calm -- 30.01 in1016.3 mb 0.00 in0.0 mm 0.00 in0.0 mm 0.19 in4.8 mm
03:00 PM 72.8°F22.7°C 72.8°F22.7°C 100% Calm Calm 2.0 mph3.2 kmh 30.01 in1016.3 mb 0.00 in0.0 mm 0.00 in0.0 mm 0.19 in4.8 mm
03:10 PM 72.6°F22.6°C 72.6°F22.6°C 100% Calm Calm 1.0 mph1.6 kmh 30.00 in1015.9 mb 0.00 in0.0 mm 0.00 in0.0 mm 0.19 in4.8 mm
03:20 PM 72.8°F22.7°C 72.8°F22.7°C 100% Calm Calm 3.0 mph4.8 kmh 30.00 in1015.9 mb 0.00 in0.0 mm 0.00 in0.0 mm 0.19 in4.8 mm
03:30 PM 72.4°F22.4°C 72.4°F22.4°C 100% Calm Calm 2.0 mph3.2 kmh 30.00 in1015.9 mb 0.00 in0.0 mm 0.00 in0.0 mm 0.19 in4.8 mm
03:40 PM 72.3°F22.4°C 72.3°F22.4°C 100% Calm Calm 4.0 mph6.4 kmh 29.99 in1015.6 mb 0.00 in0.0 mm 0.00 in0.0 mm 0.19 in4.8 mm
03:50 PM 72.1°F22.3°C 72.1°F22.3°C 100% Calm Calm 5.0 mph8.0 kmh 29.99 in1015.6 mb 0.00 in0.0 mm 0.00 in0.0 mm 0.19 in4.8 mm
04:00 PM 72.1°F22.3°C 72.1°F22.3°C 100% Calm Calm -- 30.00 in1015.9 mb 0.00 in0.0 mm 0.00 in0.0 mm 0.19 in4.8 mm
04:10 PM 72.1°F22.3°C 72.1°F22.3°C 100% Calm Calm -- 30.00 in1015.9 mb 0.00 in0.0 mm 0.00 in0.0 mm 0.19 in4.8 mm
04:20 PM 72.1°F22.3°C 72.1°F22.3°C 100% Calm Calm -- 30.01 in1016.3 mb 0.00 in0.0 mm 0.00 in0.0 mm 0.19 in4.8 mm
04:30 PM 72.3°F22.4°C 72.3°F22.4°C 100% Calm Calm -- 30.00 in1015.9 mb 0.00 in0.0 mm 0.00 in0.0 mm 0.19 in4.8 mm
04:40 PM 72.3°F22.4°C 72.3°F22.4°C 100% Calm Calm -- 30.01 in1016.3 mb 0.00 in0.0 mm 0.00 in0.0 mm 0.19 in4.8 mm
04:50 PM 72.3°F22.4°C 72.3°F22.4°C 100% Calm Calm -- 30.00 in1015.9 mb 0.00 in0.0 mm 0.00 in0.0 mm 0.19 in4.8 mm
05:00 PM 72.3°F22.4°C 72.3°F22.4°C 100% Calm Calm -- 30.00 in1015.9 mb 0.00 in0.0 mm 0.00 in0.0 mm 0.19 in4.8 mm
05:10 PM 72.1°F22.3°C 72.1°F22.3°C 100% Calm Calm -- 30.00 in1015.9 mb 0.00 in0.0 mm 0.00 in0.0 mm 0.19 in4.8 mm
05:20 PM 72.1°F22.3°C 72.1°F22.3°C 100% Calm Calm -- 30.00 in1015.9 mb 0.00 in0.0 mm 0.00 in0.0 mm 0.19 in4.8 mm
05:30 PM 72.1°F22.3°C 72.1°F22.3°C 100% Calm Calm -- 30.00 in1015.9 mb 0.00 in0.0 mm 0.00 in0.0 mm 0.19 in4.8 mm
05:40 PM 71.9°F22.2°C 71.9°F22.2°C 100% Calm Calm -- 30.00 in1015.9 mb 0.00 in0.0 mm 0.00 in0.0 mm 0.19 in4.8 mm
05:50 PM 71.8°F22.1°C 71.8°F22.1°C 100% Calm Calm 2.0 mph3.2 kmh 30.00 in1015.9 mb 0.00 in0.0 mm 0.00 in0.0 mm 0.19 in4.8 mm
06:00 PM 71.1°F21.7°C 71.1°F21.7°C 100% Calm Calm 4.0 mph6.4 kmh 30.00 in1015.9 mb 0.00 in0.0 mm 0.00 in0.0 mm 0.19 in4.8 mm
06:10 PM 70.9°F21.6°C 70.9°F21.6°C 100% Calm Calm 1.0 mph1.6 kmh 30.00 in1015.9 mb 0.00 in0.0 mm 0.00 in0.0 mm 0.19 in4.8 mm
06:20 PM 70.9°F21.6°C 70.9°F21.6°C 100% Calm Calm 1.0 mph1.6 kmh 30.00 in1015.9 mb 0.00 in0.0 mm 0.00 in0.0 mm 0.19 in4.8 mm
06:30 PM 70.7°F21.5°C 70.7°F21.5°C 100% Calm Calm 1.0 mph1.6 kmh 30.00 in1015.9 mb 0.00 in0.0 mm 0.00 in0.0 mm 0.19 in4.8 mm
06:40 PM 70.6°F21.4°C 70.6°F21.4°C 100% Calm Calm 1.0 mph1.6 kmh 30.00 in1015.9 mb 0.00 in0.0 mm 0.00 in0.0 mm 0.19 in4.8 mm
06:50 PM 70.6°F21.4°C 70.6°F21.4°C 100% Calm Calm -- 30.00 in1015.9 mb 0.00 in0.0 mm 0.00 in0.0 mm 0.19 in4.8 mm
07:00 PM 70.6°F21.4°C 70.6°F21.4°C 100% Calm Calm 3.0 mph4.8 kmh 30.00 in1015.9 mb 0.00 in0.0 mm 0.00 in0.0 mm 0.19 in4.8 mm
07:10 PM 70.6°F21.4°C 70.6°F21.4°C 100% Calm Calm 3.0 mph4.8 kmh 30.00 in1015.9 mb 0.00 in0.0 mm 0.00 in0.0 mm 0.19 in4.8 mm
07:20 PM 70.6°F21.4°C 70.6°F21.4°C 100% Calm Calm 2.0 mph3.2 kmh 30.00 in1015.9 mb 0.00 in0.0 mm 0.00 in0.0 mm 0.19 in4.8 mm
07:30 PM 70.6°F21.4°C 70.6°F21.4°C 100% Calm Calm 4.0 mph6.4 kmh 30.00 in1015.9 mb 0.00 in0.0 mm 0.00 in0.0 mm 0.19 in4.8 mm
07:40 PM 70.6°F21.4°C 70.6°F21.4°C 100% Calm Calm 2.0 mph3.2 kmh 30.00 in1015.9 mb 0.00 in0.0 mm 0.00 in0.0 mm 0.19 in4.8 mm
07:50 PM 70.4°F21.3°C 70.4°F21.3°C 100% Calm Calm 4.0 mph6.4 kmh 30.01 in1016.3 mb 0.00 in0.0 mm 0.00 in0.0 mm 0.19 in4.8 mm
08:00 PM 70.2°F21.2°C 70.2°F21.2°C 100% Calm Calm 3.0 mph4.8 kmh 30.01 in1016.3 mb 0.00 in0.0 mm 0.00 in0.0 mm 0.19 in4.8 mm
08:10 PM 70.1°F21.2°C 70.1°F21.2°C 100% Calm Calm -- 30.02 in1016.6 mb 0.00 in0.0 mm 0.00 in0.0 mm 0.19 in4.8 mm
08:20 PM 70.1°F21.2°C 70.1°F21.2°C 100% Calm Calm -- 30.02 in1016.6 mb 0.01 in0.3 mm 0.06 in1.5 mm 0.20 in5.1 mm
08:30 PM 70.1°F21.2°C 70.1°F21.2°C 100% Calm Calm -- 30.02 in1016.6 mb 0.01 in0.3 mm 0.00 in0.0 mm 0.20 in5.1 mm
08:40 PM 70.1°F21.2°C 70.1°F21.2°C 100% Calm Calm -- 30.03 in1016.9 mb 0.01 in0.3 mm 0.00 in0.0 mm 0.20 in5.1 mm
08:50 PM 69.9°F21.1°C 69.9°F21.1°C 100% Calm Calm -- 30.03 in1016.9 mb 0.01 in0.3 mm 0.00 in0.0 mm 0.20 in5.1 mm
09:00 PM 69.9°F21.1°C 69.9°F21.1°C 100% Calm Calm -- 30.03 in1016.9 mb 0.01 in0.3 mm 0.00 in0.0 mm 0.20 in5.1 mm
09:10 PM 69.9°F21.1°C 69.9°F21.1°C 100% Calm Calm -- 30.02 in1016.6 mb 0.01 in0.3 mm 0.00 in0.0 mm 0.20 in5.1 mm
09:20 PM 69.9°F21.1°C 69.9°F21.1°C 100% Calm Calm -- 30.03 in1016.9 mb 0.01 in0.3 mm 0.00 in0.0 mm 0.21 in5.3 mm
09:30 PM 69.7°F20.9°C 69.7°F20.9°C 100% Calm Calm -- 30.03 in1016.9 mb 0.01 in0.3 mm 0.00 in0.0 mm 0.21 in5.3 mm
09:40 PM 69.9°F21.1°C 69.9°F21.1°C 100% Calm Calm -- 30.03 in1016.9 mb 0.01 in0.3 mm 0.00 in0.0 mm 0.21 in5.3 mm
09:50 PM 69.9°F21.1°C 69.9°F21.1°C 100% Calm Calm -- 30.03 in1016.9 mb 0.01 in0.3 mm 0.00 in0.0 mm 0.21 in5.3 mm
10:00 PM 69.9°F21.1°C 69.9°F21.1°C 100% Calm Calm -- 30.03 in1016.9 mb 0.02 in0.5 mm 0.01 in0.3 mm 0.22 in5.6 mm
10:10 PM 69.9°F21.1°C 69.9°F21.1°C 100% Calm Calm -- 30.03 in1016.9 mb 0.02 in0.5 mm 0.00 in0.0 mm 0.22 in5.6 mm
10:20 PM 69.9°F21.1°C 69.9°F21.1°C 100% Calm Calm -- 30.03 in1016.9 mb 0.01 in0.3 mm 0.00 in0.0 mm 0.22 in5.6 mm
10:30 PM 69.9°F21.1°C 69.9°F21.1°C 100% Calm Calm -- 30.03 in1016.9 mb 0.02 in0.5 mm 0.06 in1.5 mm 0.23 in5.8 mm
10:40 PM 70.2°F21.2°C 70.2°F21.2°C 100% Calm Calm 1.0 mph1.6 kmh 30.03 in1016.9 mb 0.02 in0.5 mm 0.00 in0.0 mm 0.23 in5.8 mm
10:50 PM 70.2°F21.2°C 70.2°F21.2°C 100% Calm Calm -- 30.02 in1016.6 mb 0.03 in0.8 mm 0.06 in1.5 mm 0.24 in6.1 mm
11:00 PM 70.2°F21.2°C 70.2°F21.2°C 100% Calm Calm -- 30.02 in1016.6 mb 0.02 in0.5 mm 0.00 in0.0 mm 0.24 in6.1 mm
11:10 PM 70.4°F21.3°C 70.4°F21.3°C 100% Calm Calm -- 30.02 in1016.6 mb 0.03 in0.8 mm 0.06 in1.5 mm 0.25 in6.4 mm
11:20 PM 70.4°F21.3°C 70.4°F21.3°C 100% Calm Calm 4.0 mph6.4 kmh 30.02 in1016.6 mb 0.04 in1.0 mm 0.06 in1.5 mm 0.26 in6.6 mm
11:30 PM 70.6°F21.4°C 70.6°F21.4°C 100% Calm Calm 3.0 mph4.8 kmh 30.02 in1016.6 mb 0.03 in0.8 mm 0.00 in0.0 mm 0.26 in6.6 mm
11:40 PM 70.6°F21.4°C 70.6°F21.4°C 100% Calm Calm 1.0 mph1.6 kmh 30.01 in1016.3 mb 0.03 in0.8 mm 0.00 in0.0 mm 0.26 in6.6 mm
11:50 PM 70.6°F21.4°C 70.6°F21.4°C 100% Calm Calm -- 30.02 in1016.6 mb 0.02 in0.5 mm 0.00 in0.0 mm 0.26 in6.6 mm